sensor_id;sensor_type;location;lat;lon;timestamp;P1;durP1;ratioP1;P2;durP2;ratioP2
73729;SDS011;62036;48.128;16.458;2023-04-30T00:01:23;2.70;;;2.42;;
73729;SDS011;62036;48.128;16.458;2023-04-30T00:03:49;2.67;;;2.10;;
73729;SDS011;62036;48.128;16.458;2023-04-30T00:06:15;3.40;;;2.63;;
73729;SDS011;62036;48.128;16.458;2023-04-30T00:08:41;3.85;;;2.60;;
73729;SDS011;62036;48.128;16.458;2023-04-30T00:11:07;4.40;;;2.65;;
73729;SDS011;62036;48.128;16.458;2023-04-30T00:13:33;2.38;;;1.88;;
73729;SDS011;62036;48.128;16.458;2023-04-30T00:15:59;2.58;;;2.13;;
73729;SDS011;62036;48.128;16.458;2023-04-30T00:18:25;2.58;;;1.95;;
73729;SDS011;62036;48.128;16.458;2023-04-30T00:20:51;1.92;;;1.67;;
73729;SDS011;62036;48.128;16.458;2023-04-30T00:23:20;3.67;;;2.72;;
73729;SDS011;62036;48.128;16.458;2023-04-30T00:25:49;3.92;;;1.52;;
73729;SDS011;62036;48.128;16.458;2023-04-30T00:28:22;4.15;;;1.25;;
73729;SDS011;62036;48.128;16.458;2023-04-30T00:30:48;2.15;;;1.55;;
73729;SDS011;62036;48.128;16.458;2023-04-30T00:33:14;3.50;;;1.70;;
73729;SDS011;62036;48.128;16.458;2023-04-30T00:35:40;2.60;;;1.55;;
73729;SDS011;62036;48.128;16.458;2023-04-30T00:38:06;1.70;;;1.33;;
73729;SDS011;62036;48.128;16.458;2023-04-30T00:40:33;3.40;;;1.55;;
73729;SDS011;62036;48.128;16.458;2023-04-30T00:43:00;3.47;;;1.77;;
73729;SDS011;62036;48.128;16.458;2023-04-30T00:45:26;3.15;;;1.77;;
73729;SDS011;62036;48.128;16.458;2023-04-30T00:47:52;2.80;;;1.55;;
73729;SDS011;62036;48.128;16.458;2023-04-30T00:50:18;5.22;;;1.70;;
73729;SDS011;62036;48.128;16.458;2023-04-30T00:52:44;5.78;;;2.28;;
73729;SDS011;62036;48.128;16.458;2023-04-30T00:55:10;3.63;;;1.77;;
73729;SDS011;62036;48.128;16.458;2023-04-30T00:57:37;2.78;;;1.80;;
73729;SDS011;62036;48.128;16.458;2023-04-30T01:00:04;3.42;;;2.05;;
73729;SDS011;62036;48.128;16.458;2023-04-30T01:02:33;3.20;;;1.88;;
73729;SDS011;62036;48.128;16.458;2023-04-30T01:05:00;7.55;;;2.15;;
73729;SDS011;62036;48.128;16.458;2023-04-30T01:07:27;4.85;;;2.55;;
73729;SDS011;62036;48.128;16.458;2023-04-30T01:09:53;5.35;;;2.70;;
73729;SDS011;62036;48.128;16.458;2023-04-30T01:13:05;2.92;;;1.67;;
73729;SDS011;62036;48.128;16.458;2023-04-30T01:15:08;4.63;;;2.20;;
73729;SDS011;62036;48.128;16.458;2023-04-30T01:20:10;5.30;;;3.65;;
73729;SDS011;62036;48.128;16.458;2023-04-30T01:22:48;3.17;;;2.13;;
73729;SDS011;62036;48.128;16.458;2023-04-30T01:25:24;2.97;;;1.67;;
73729;SDS011;62036;48.128;16.458;2023-04-30T01:28:04;5.05;;;3.22;;
73729;SDS011;62036;48.128;16.458;2023-04-30T01:30:31;4.50;;;2.95;;
73729;SDS011;62036;48.128;16.458;2023-04-30T01:32:58;4.30;;;2.05;;
73729;SDS011;62036;48.128;16.458;2023-04-30T01:35:49;3.83;;;2.53;;
73729;SDS011;62036;48.128;16.458;2023-04-30T01:40:57;3.85;;;2.08;;
73729;SDS011;62036;48.128;16.458;2023-04-30T01:48:41;4.05;;;2.22;;
73729;SDS011;62036;48.128;16.458;2023-04-30T01:51:29;4.93;;;2.88;;
73729;SDS011;62036;48.128;16.458;2023-04-30T01:53:58;5.40;;;2.83;;
73729;SDS011;62036;48.128;16.458;2023-04-30T01:56:31;4.50;;;2.72;;
73729;SDS011;62036;48.128;16.458;2023-04-30T01:58:58;4.38;;;2.13;;
73729;SDS011;62036;48.128;16.458;2023-04-30T02:01:25;5.07;;;3.05;;
73729;SDS011;62036;48.128;16.458;2023-04-30T02:03:51;5.57;;;3.10;;
73729;SDS011;62036;48.128;16.458;2023-04-30T02:06:17;4.32;;;2.70;;
73729;SDS011;62036;48.128;16.458;2023-04-30T02:08:43;3.50;;;2.40;;
73729;SDS011;62036;48.128;16.458;2023-04-30T02:11:09;4.20;;;2.80;;
73729;SDS011;62036;48.128;16.458;2023-04-30T02:13:35;4.22;;;2.60;;
73729;SDS011;62036;48.128;16.458;2023-04-30T02:16:01;5.70;;;3.15;;
73729;SDS011;62036;48.128;16.458;2023-04-30T02:18:28;5.43;;;3.20;;
73729;SDS011;62036;48.128;16.458;2023-04-30T02:20:54;5.47;;;2.88;;
73729;SDS011;62036;48.128;16.458;2023-04-30T02:23:20;4.63;;;2.90;;
73729;SDS011;62036;48.128;16.458;2023-04-30T02:25:46;2.83;;;2.22;;
73729;SDS011;62036;48.128;16.458;2023-04-30T02:28:12;5.93;;;3.40;;
73729;SDS011;62036;48.128;16.458;2023-04-30T02:30:38;5.68;;;2.75;;
73729;SDS011;62036;48.128;16.458;2023-04-30T02:33:04;4.78;;;3.13;;
73729;SDS011;62036;48.128;16.458;2023-04-30T02:35:30;4.82;;;2.45;;
73729;SDS011;62036;48.128;16.458;2023-04-30T02:37:56;6.50;;;3.53;;
73729;SDS011;62036;48.128;16.458;2023-04-30T02:40:22;6.22;;;3.67;;
73729;SDS011;62036;48.128;16.458;2023-04-30T02:42:48;4.20;;;2.15;;
73729;SDS011;62036;48.128;16.458;2023-04-30T02:45:14;5.20;;;2.88;;
73729;SDS011;62036;48.128;16.458;2023-04-30T02:47:40;6.25;;;3.58;;
73729;SDS011;62036;48.128;16.458;2023-04-30T02:50:06;6.05;;;3.63;;
73729;SDS011;62036;48.128;16.458;2023-04-30T02:52:32;4.97;;;2.65;;
73729;SDS011;62036;48.128;16.458;2023-04-30T02:54:58;4.28;;;2.45;;
73729;SDS011;62036;48.128;16.458;2023-04-30T02:57:24;3.13;;;2.13;;
73729;SDS011;62036;48.128;16.458;2023-04-30T02:59:50;3.97;;;3.13;;
73729;SDS011;62036;48.128;16.458;2023-04-30T03:02:16;4.45;;;3.05;;
73729;SDS011;62036;48.128;16.458;2023-04-30T03:04:45;4.90;;;2.83;;
73729;SDS011;62036;48.128;16.458;2023-04-30T03:07:11;6.40;;;3.70;;
73729;SDS011;62036;48.128;16.458;2023-04-30T03:09:37;7.40;;;3.60;;
73729;SDS011;62036;48.128;16.458;2023-04-30T03:12:03;5.00;;;3.20;;
73729;SDS011;62036;48.128;16.458;2023-04-30T03:14:29;7.00;;;3.92;;
73729;SDS011;62036;48.128;16.458;2023-04-30T03:16:55;5.32;;;3.22;;
73729;SDS011;62036;48.128;16.458;2023-04-30T03:19:21;6.20;;;3.47;;
73729;SDS011;62036;48.128;16.458;2023-04-30T03:21:49;4.75;;;2.58;;
73729;SDS011;62036;48.128;16.458;2023-04-30T03:24:16;6.65;;;3.80;;
73729;SDS011;62036;48.128;16.458;2023-04-30T03:26:43;5.82;;;3.47;;
73729;SDS011;62036;48.128;16.458;2023-04-30T03:29:09;6.22;;;3.45;;
73729;SDS011;62036;48.128;16.458;2023-04-30T03:31:35;6.20;;;3.58;;
73729;SDS011;62036;48.128;16.458;2023-04-30T03:34:01;6.10;;;3.60;;
73729;SDS011;62036;48.128;16.458;2023-04-30T03:36:27;4.97;;;3.28;;
73729;SDS011;62036;48.128;16.458;2023-04-30T03:38:53;6.65;;;3.55;;
73729;SDS011;62036;48.128;16.458;2023-04-30T03:41:19;4.40;;;2.45;;
73729;SDS011;62036;48.128;16.458;2023-04-30T03:43:45;3.40;;;2.40;;
73729;SDS011;62036;48.128;16.458;2023-04-30T03:46:11;4.63;;;2.97;;
73729;SDS011;62036;48.128;16.458;2023-04-30T03:48:37;5.22;;;3.28;;
73729;SDS011;62036;48.128;16.458;2023-04-30T03:51:03;5.38;;;3.30;;
73729;SDS011;62036;48.128;16.458;2023-04-30T03:53:29;8.20;;;3.95;;
73729;SDS011;62036;48.128;16.458;2023-04-30T03:55:56;6.80;;;4.00;;
73729;SDS011;62036;48.128;16.458;2023-04-30T03:58:22;6.43;;;3.13;;
73729;SDS011;62036;48.128;16.458;2023-04-30T04:00:48;5.00;;;3.95;;
73729;SDS011;62036;48.128;16.458;2023-04-30T04:03:14;6.57;;;3.08;;
73729;SDS011;62036;48.128;16.458;2023-04-30T04:05:40;6.93;;;4.00;;
73729;SDS011;62036;48.128;16.458;2023-04-30T04:08:06;7.93;;;3.53;;
73729;SDS011;62036;48.128;16.458;2023-04-30T04:10:33;5.65;;;3.50;;
73729;SDS011;62036;48.128;16.458;2023-04-30T04:12:59;8.05;;;3.20;;
73729;SDS011;62036;48.128;16.458;2023-04-30T04:15:25;4.75;;;2.70;;
73729;SDS011;62036;48.128;16.458;2023-04-30T04:17:51;7.20;;;3.75;;
73729;SDS011;62036;48.128;16.458;2023-04-30T04:20:17;6.53;;;4.03;;
73729;SDS011;62036;48.128;16.458;2023-04-30T04:22:43;4.53;;;2.47;;
73729;SDS011;62036;48.128;16.458;2023-04-30T04:25:09;3.28;;;2.45;;
73729;SDS011;62036;48.128;16.458;2023-04-30T04:27:35;4.03;;;2.90;;
73729;SDS011;62036;48.128;16.458;2023-04-30T04:30:02;4.88;;;2.78;;
73729;SDS011;62036;48.128;16.458;2023-04-30T04:32:28;2.63;;;2.17;;
73729;SDS011;62036;48.128;16.458;2023-04-30T04:34:56;5.13;;;3.05;;
73729;SDS011;62036;48.128;16.458;2023-04-30T04:37:22;5.38;;;2.95;;
73729;SDS011;62036;48.128;16.458;2023-04-30T04:39:49;4.32;;;1.92;;
73729;SDS011;62036;48.128;16.458;2023-04-30T04:42:15;6.28;;;3.25;;
73729;SDS011;62036;48.128;16.458;2023-04-30T04:44:42;5.43;;;2.90;;
73729;SDS011;62036;48.128;16.458;2023-04-30T04:47:08;5.07;;;2.80;;
73729;SDS011;62036;48.128;16.458;2023-04-30T04:49:34;7.00;;;3.70;;
73729;SDS011;62036;48.128;16.458;2023-04-30T04:52:00;4.75;;;2.97;;
73729;SDS011;62036;48.128;16.458;2023-04-30T04:54:26;5.50;;;2.95;;
73729;SDS011;62036;48.128;16.458;2023-04-30T04:56:53;4.43;;;2.85;;
73729;SDS011;62036;48.128;16.458;2023-04-30T04:59:19;2.75;;;2.28;;
73729;SDS011;62036;48.128;16.458;2023-04-30T05:01:45;4.93;;;2.88;;
73729;SDS011;62036;48.128;16.458;2023-04-30T05:04:11;4.00;;;2.65;;
73729;SDS011;62036;48.128;16.458;2023-04-30T05:06:38;6.00;;;2.85;;
73729;SDS011;62036;48.128;16.458;2023-04-30T05:09:05;5.80;;;3.15;;
73729;SDS011;62036;48.128;16.458;2023-04-30T05:11:33;4.03;;;2.67;;
73729;SDS011;62036;48.128;16.458;2023-04-30T05:13:59;6.47;;;2.97;;
73729;SDS011;62036;48.128;16.458;2023-04-30T05:16:25;6.40;;;3.15;;
73729;SDS011;62036;48.128;16.458;2023-04-30T05:18:51;4.78;;;3.78;;
73729;SDS011;62036;48.128;16.458;2023-04-30T05:21:17;6.32;;;3.58;;
73729;SDS011;62036;48.128;16.458;2023-04-30T05:23:43;8.52;;;3.35;;
73729;SDS011;62036;48.128;16.458;2023-04-30T05:26:09;5.88;;;3.28;;
73729;SDS011;62036;48.128;16.458;2023-04-30T05:28:35;5.97;;;3.47;;
73729;SDS011;62036;48.128;16.458;2023-04-30T05:31:01;6.82;;;2.60;;
73729;SDS011;62036;48.128;16.458;2023-04-30T05:33:27;4.88;;;3.03;;
73729;SDS011;62036;48.128;16.458;2023-04-30T05:35:53;6.85;;;3.63;;
73729;SDS011;62036;48.128;16.458;2023-04-30T05:38:19;5.20;;;3.42;;
73729;SDS011;62036;48.128;16.458;2023-04-30T05:40:45;8.10;;;3.42;;
73729;SDS011;62036;48.128;16.458;2023-04-30T05:43:11;5.75;;;3.58;;
73729;SDS011;62036;48.128;16.458;2023-04-30T05:45:37;5.57;;;3.15;;
73729;SDS011;62036;48.128;16.458;2023-04-30T05:48:03;4.88;;;2.95;;
73729;SDS011;62036;48.128;16.458;2023-04-30T05:50:29;6.93;;;3.22;;
73729;SDS011;62036;48.128;16.458;2023-04-30T05:52:55;8.38;;;4.35;;
73729;SDS011;62036;48.128;16.458;2023-04-30T05:55:21;3.92;;;2.80;;
73729;SDS011;62036;48.128;16.458;2023-04-30T05:57:47;5.32;;;3.13;;
73729;SDS011;62036;48.128;16.458;2023-04-30T06:00:14;7.63;;;3.25;;
73729;SDS011;62036;48.128;16.458;2023-04-30T06:02:40;5.93;;;2.97;;
73729;SDS011;62036;48.128;16.458;2023-04-30T06:05:09;5.03;;;3.10;;
73729;SDS011;62036;48.128;16.458;2023-04-30T06:07:35;5.43;;;3.33;;
73729;SDS011;62036;48.128;16.458;2023-04-30T06:10:01;5.80;;;2.83;;
73729;SDS011;62036;48.128;16.458;2023-04-30T06:12:28;6.60;;;2.67;;
73729;SDS011;62036;48.128;16.458;2023-04-30T06:14:54;5.40;;;3.55;;
73729;SDS011;62036;48.128;16.458;2023-04-30T06:17:20;4.57;;;3.03;;
73729;SDS011;62036;48.128;16.458;2023-04-30T06:19:46;5.97;;;3.33;;
73729;SDS011;62036;48.128;16.458;2023-04-30T06:22:12;3.63;;;2.20;;
73729;SDS011;62036;48.128;16.458;2023-04-30T06:24:38;4.18;;;2.78;;
73729;SDS011;62036;48.128;16.458;2023-04-30T06:27:04;5.20;;;3.45;;
73729;SDS011;62036;48.128;16.458;2023-04-30T06:29:30;8.45;;;4.53;;
73729;SDS011;62036;48.128;16.458;2023-04-30T06:31:56;3.75;;;2.65;;
73729;SDS011;62036;48.128;16.458;2023-04-30T06:34:22;4.65;;;3.17;;
73729;SDS011;62036;48.128;16.458;2023-04-30T06:36:48;4.28;;;2.67;;
73729;SDS011;62036;48.128;16.458;2023-04-30T06:39:14;7.45;;;4.25;;
73729;SDS011;62036;48.128;16.458;2023-04-30T06:41:41;8.68;;;4.20;;
73729;SDS011;62036;48.128;16.458;2023-04-30T06:44:07;6.00;;;4.15;;
73729;SDS011;62036;48.128;16.458;2023-04-30T06:46:33;4.30;;;2.75;;
73729;SDS011;62036;48.128;16.458;2023-04-30T06:48:59;4.03;;;2.63;;
73729;SDS011;62036;48.128;16.458;2023-04-30T06:51:25;5.05;;;2.97;;
73729;SDS011;62036;48.128;16.458;2023-04-30T06:53:51;5.22;;;3.03;;
73729;SDS011;62036;48.128;16.458;2023-04-30T06:56:17;3.85;;;3.00;;
73729;SDS011;62036;48.128;16.458;2023-04-30T06:58:45;4.70;;;2.35;;
73729;SDS011;62036;48.128;16.458;2023-04-30T07:01:11;5.03;;;3.22;;
73729;SDS011;62036;48.128;16.458;2023-04-30T07:03:37;4.72;;;2.80;;
73729;SDS011;62036;48.128;16.458;2023-04-30T07:06:04;4.45;;;3.00;;
73729;SDS011;62036;48.128;16.458;2023-04-30T07:08:30;5.30;;;2.70;;
73729;SDS011;62036;48.128;16.458;2023-04-30T07:10:56;5.85;;;3.08;;
73729;SDS011;62036;48.128;16.458;2023-04-30T07:13:22;5.95;;;3.40;;
73729;SDS011;62036;48.128;16.458;2023-04-30T07:15:48;5.57;;;3.30;;
73729;SDS011;62036;48.128;16.458;2023-04-30T07:18:14;6.35;;;3.65;;
73729;SDS011;62036;48.128;16.458;2023-04-30T07:20:41;5.13;;;3.13;;
73729;SDS011;62036;48.128;16.458;2023-04-30T07:23:07;4.55;;;2.10;;
73729;SDS011;62036;48.128;16.458;2023-04-30T07:25:33;4.20;;;2.65;;
73729;SDS011;62036;48.128;16.458;2023-04-30T07:27:59;5.03;;;3.17;;
73729;SDS011;62036;48.128;16.458;2023-04-30T07:30:25;5.28;;;2.90;;
73729;SDS011;62036;48.128;16.458;2023-04-30T07:32:51;3.35;;;2.05;;
73729;SDS011;62036;48.128;16.458;2023-04-30T07:35:17;3.65;;;2.50;;
73729;SDS011;62036;48.128;16.458;2023-04-30T07:37:43;3.85;;;2.95;;
73729;SDS011;62036;48.128;16.458;2023-04-30T07:40:10;4.72;;;2.55;;
73729;SDS011;62036;48.128;16.458;2023-04-30T07:42:39;4.57;;;2.40;;
73729;SDS011;62036;48.128;16.458;2023-04-30T07:45:11;5.13;;;2.47;;
73729;SDS011;62036;48.128;16.458;2023-04-30T07:47:38;5.68;;;2.28;;
73729;SDS011;62036;48.128;16.458;2023-04-30T07:50:07;5.60;;;2.15;;
73729;SDS011;62036;48.128;16.458;2023-04-30T07:52:33;4.20;;;2.38;;
73729;SDS011;62036;48.128;16.458;2023-04-30T07:54:59;4.95;;;2.40;;
73729;SDS011;62036;48.128;16.458;2023-04-30T07:57:25;3.10;;;1.85;;
73729;SDS011;62036;48.128;16.458;2023-04-30T07:59:54;7.93;;;2.38;;
73729;SDS011;62036;48.128;16.458;2023-04-30T08:02:21;4.10;;;2.58;;
73729;SDS011;62036;48.128;16.458;2023-04-30T08:04:47;2.67;;;1.98;;
73729;SDS011;62036;48.128;16.458;2023-04-30T08:07:13;4.20;;;2.53;;
73729;SDS011;62036;48.128;16.458;2023-04-30T08:09:42;4.28;;;2.40;;
73729;SDS011;62036;48.128;16.458;2023-04-30T08:12:08;6.75;;;2.53;;
73729;SDS011;62036;48.128;16.458;2023-04-30T08:14:35;4.53;;;3.00;;
73729;SDS011;62036;48.128;16.458;2023-04-30T08:17:01;5.25;;;2.50;;
73729;SDS011;62036;48.128;16.458;2023-04-30T08:19:27;5.57;;;2.75;;
73729;SDS011;62036;48.128;16.458;2023-04-30T08:21:53;3.05;;;2.20;;
73729;SDS011;62036;48.128;16.458;2023-04-30T08:24:20;4.30;;;2.55;;
73729;SDS011;62036;48.128;16.458;2023-04-30T08:26:46;5.13;;;2.70;;
73729;SDS011;62036;48.128;16.458;2023-04-30T08:29:12;3.53;;;2.60;;
73729;SDS011;62036;48.128;16.458;2023-04-30T08:31:38;4.35;;;1.98;;
73729;SDS011;62036;48.128;16.458;2023-04-30T08:34:04;4.60;;;2.50;;
73729;SDS011;62036;48.128;16.458;2023-04-30T08:36:30;5.72;;;2.40;;
73729;SDS011;62036;48.128;16.458;2023-04-30T08:38:56;5.72;;;2.67;;
73729;SDS011;62036;48.128;16.458;2023-04-30T08:41:24;4.95;;;2.15;;
73729;SDS011;62036;48.128;16.458;2023-04-30T08:43:51;4.55;;;2.33;;
73729;SDS011;62036;48.128;16.458;2023-04-30T08:46:19;3.13;;;2.15;;
73729;SDS011;62036;48.128;16.458;2023-04-30T08:48:45;2.42;;;2.22;;
73729;SDS011;62036;48.128;16.458;2023-04-30T08:51:14;3.92;;;2.20;;
73729;SDS011;62036;48.128;16.458;2023-04-30T08:53:41;2.70;;;1.75;;
73729;SDS011;62036;48.128;16.458;2023-04-30T08:56:08;5.65;;;2.90;;
73729;SDS011;62036;48.128;16.458;2023-04-30T08:58:34;2.08;;;1.80;;
73729;SDS011;62036;48.128;16.458;2023-04-30T09:01:01;4.80;;;2.38;;
73729;SDS011;62036;48.128;16.458;2023-04-30T09:03:29;3.75;;;2.22;;
73729;SDS011;62036;48.128;16.458;2023-04-30T09:05:55;3.72;;;1.90;;
73729;SDS011;62036;48.128;16.458;2023-04-30T09:11:48;3.88;;;2.40;;
73729;SDS011;62036;48.128;16.458;2023-04-30T09:13:59;4.05;;;2.05;;
73729;SDS011;62036;48.128;16.458;2023-04-30T09:16:26;3.63;;;2.50;;
73729;SDS011;62036;48.128;16.458;2023-04-30T09:18:54;4.25;;;2.95;;
73729;SDS011;62036;48.128;16.458;2023-04-30T09:21:30;5.68;;;2.90;;
73729;SDS011;62036;48.128;16.458;2023-04-30T09:23:57;3.28;;;2.10;;
73729;SDS011;62036;48.128;16.458;2023-04-30T09:26:29;4.00;;;2.10;;
73729;SDS011;62036;48.128;16.458;2023-04-30T09:28:56;3.45;;;2.20;;
73729;SDS011;62036;48.128;16.458;2023-04-30T09:31:22;3.65;;;2.47;;
73729;SDS011;62036;48.128;16.458;2023-04-30T09:33:49;3.72;;;2.30;;
73729;SDS011;62036;48.128;16.458;2023-04-30T09:36:15;5.18;;;3.05;;
73729;SDS011;62036;48.128;16.458;2023-04-30T09:38:41;3.28;;;1.85;;
73729;SDS011;62036;48.128;16.458;2023-04-30T09:41:10;6.10;;;2.13;;
73729;SDS011;62036;48.128;16.458;2023-04-30T09:43:45;3.38;;;2.38;;
73729;SDS011;62036;48.128;16.458;2023-04-30T09:46:11;4.57;;;2.60;;
73729;SDS011;62036;48.128;16.458;2023-04-30T09:48:40;4.70;;;2.70;;
73729;SDS011;62036;48.128;16.458;2023-04-30T09:51:06;7.15;;;3.30;;
73729;SDS011;62036;48.128;16.458;2023-04-30T09:53:32;6.63;;;3.28;;
73729;SDS011;62036;48.128;16.458;2023-04-30T09:56:04;4.78;;;2.50;;
73729;SDS011;62036;48.128;16.458;2023-04-30T09:58:34;2.92;;;2.25;;
73729;SDS011;62036;48.128;16.458;2023-04-30T10:01:02;5.95;;;2.55;;
73729;SDS011;62036;48.128;16.458;2023-04-30T10:03:32;3.53;;;2.38;;
73729;SDS011;62036;48.128;16.458;2023-04-30T10:05:58;4.07;;;2.45;;
73729;SDS011;62036;48.128;16.458;2023-04-30T10:08:33;4.75;;;2.53;;
73729;SDS011;62036;48.128;16.458;2023-04-30T10:11:05;3.47;;;2.15;;
73729;SDS011;62036;48.128;16.458;2023-04-30T10:13:32;3.33;;;2.35;;
73729;SDS011;62036;48.128;16.458;2023-04-30T10:16:00;4.18;;;2.33;;
73729;SDS011;62036;48.128;16.458;2023-04-30T10:18:36;4.10;;;2.38;;
73729;SDS011;62036;48.128;16.458;2023-04-30T10:21:04;2.25;;;1.77;;
73729;SDS011;62036;48.128;16.458;2023-04-30T10:23:36;3.20;;;2.25;;
73729;SDS011;62036;48.128;16.458;2023-04-30T10:26:04;2.97;;;2.10;;
73729;SDS011;62036;48.128;16.458;2023-04-30T10:28:31;5.05;;;2.22;;
73729;SDS011;62036;48.128;16.458;2023-04-30T10:30:57;2.97;;;2.03;;
73729;SDS011;62036;48.128;16.458;2023-04-30T10:33:34;4.20;;;2.25;;
73729;SDS011;62036;48.128;16.458;2023-04-30T10:36:05;2.90;;;1.90;;
73729;SDS011;62036;48.128;16.458;2023-04-30T10:38:33;2.78;;;1.73;;
73729;SDS011;62036;48.128;16.458;2023-04-30T10:41:00;3.40;;;2.10;;
73729;SDS011;62036;48.128;16.458;2023-04-30T10:43:28;3.10;;;2.28;;
73729;SDS011;62036;48.128;16.458;2023-04-30T10:45:57;3.35;;;2.13;;
73729;SDS011;62036;48.128;16.458;2023-04-30T10:48:24;1.65;;;1.13;;
73729;SDS011;62036;48.128;16.458;2023-04-30T10:50:51;2.60;;;2.05;;
73729;SDS011;62036;48.128;16.458;2023-04-30T10:53:18;2.95;;;1.90;;
73729;SDS011;62036;48.128;16.458;2023-04-30T10:55:53;2.95;;;1.88;;
73729;SDS011;62036;48.128;16.458;2023-04-30T11:00:50;3.47;;;2.42;;
73729;SDS011;62036;48.128;16.458;2023-04-30T11:03:16;3.40;;;2.00;;
73729;SDS011;62036;48.128;16.458;2023-04-30T11:05:42;4.72;;;1.98;;
73729;SDS011;62036;48.128;16.458;2023-04-30T11:08:11;4.45;;;1.92;;
73729;SDS011;62036;48.128;16.458;2023-04-30T11:10:40;3.67;;;2.15;;
73729;SDS011;62036;48.128;16.458;2023-04-30T11:13:21;3.35;;;2.25;;
73729;SDS011;62036;48.128;16.458;2023-04-30T11:15:47;2.47;;;1.85;;
73729;SDS011;62036;48.128;16.458;2023-04-30T11:18:13;2.58;;;1.65;;
73729;SDS011;62036;48.128;16.458;2023-04-30T11:20:40;2.10;;;1.58;;
73729;SDS011;62036;48.128;16.458;2023-04-30T11:23:13;3.08;;;2.03;;
73729;SDS011;62036;48.128;16.458;2023-04-30T11:25:46;2.85;;;1.90;;
73729;SDS011;62036;48.128;16.458;2023-04-30T11:28:16;3.05;;;1.98;;
73729;SDS011;62036;48.128;16.458;2023-04-30T11:30:52;3.42;;;1.70;;
73729;SDS011;62036;48.128;16.458;2023-04-30T11:33:19;3.80;;;1.80;;
73729;SDS011;62036;48.128;16.458;2023-04-30T11:35:45;2.55;;;2.08;;
73729;SDS011;62036;48.128;16.458;2023-04-30T11:38:14;5.43;;;2.25;;
73729;SDS011;62036;48.128;16.458;2023-04-30T11:40:40;4.35;;;2.45;;
73729;SDS011;62036;48.128;16.458;2023-04-30T11:43:06;3.72;;;2.55;;
73729;SDS011;62036;48.128;16.458;2023-04-30T11:45:32;5.57;;;2.60;;
73729;SDS011;62036;48.128;16.458;2023-04-30T11:47:59;3.85;;;2.60;;
73729;SDS011;62036;48.128;16.458;2023-04-30T11:50:25;4.03;;;2.53;;
73729;SDS011;62036;48.128;16.458;2023-04-30T11:52:55;3.40;;;2.40;;
73729;SDS011;62036;48.128;16.458;2023-04-30T11:55:22;3.70;;;2.80;;
73729;SDS011;62036;48.128;16.458;2023-04-30T11:57:50;4.07;;;2.60;;
73729;SDS011;62036;48.128;16.458;2023-04-30T12:00:19;4.78;;;2.70;;
73729;SDS011;62036;48.128;16.458;2023-04-30T12:02:46;4.28;;;2.67;;
73729;SDS011;62036;48.128;16.458;2023-04-30T12:07:45;5.20;;;3.08;;
73729;SDS011;62036;48.128;16.458;2023-04-30T12:10:11;4.90;;;3.00;;
73729;SDS011;62036;48.128;16.458;2023-04-30T12:12:37;4.13;;;3.00;;
73729;SDS011;62036;48.128;16.458;2023-04-30T12:15:14;6.35;;;3.65;;
73729;SDS011;62036;48.128;16.458;2023-04-30T12:17:40;4.93;;;3.10;;
73729;SDS011;62036;48.128;16.458;2023-04-30T12:20:07;5.65;;;3.25;;
73729;SDS011;62036;48.128;16.458;2023-04-30T12:22:33;6.30;;;3.10;;
73729;SDS011;62036;48.128;16.458;2023-04-30T12:25:05;4.70;;;2.60;;
73729;SDS011;62036;48.128;16.458;2023-04-30T12:27:32;8.52;;;3.50;;
73729;SDS011;62036;48.128;16.458;2023-04-30T12:30:05;6.30;;;3.33;;
73729;SDS011;62036;48.128;16.458;2023-04-30T12:32:42;5.03;;;3.28;;
73729;SDS011;62036;48.128;16.458;2023-04-30T12:35:12;3.60;;;2.63;;
73729;SDS011;62036;48.128;16.458;2023-04-30T12:37:49;3.88;;;2.90;;
73729;SDS011;62036;48.128;16.458;2023-04-30T12:40:19;4.72;;;2.88;;
73729;SDS011;62036;48.128;16.458;2023-04-30T12:42:46;5.68;;;2.90;;
73729;SDS011;62036;48.128;16.458;2023-04-30T12:45:13;5.75;;;3.03;;
73729;SDS011;62036;48.128;16.458;2023-04-30T12:47:58;4.90;;;2.08;;
73729;SDS011;62036;48.128;16.458;2023-04-30T12:50:25;3.28;;;2.05;;
73729;SDS011;62036;48.128;16.458;2023-04-30T12:52:51;3.85;;;2.25;;
73729;SDS011;62036;48.128;16.458;2023-04-30T12:55:17;3.60;;;2.67;;
73729;SDS011;62036;48.128;16.458;2023-04-30T13:00:41;3.25;;;2.35;;
73729;SDS011;62036;48.128;16.458;2023-04-30T13:03:07;3.45;;;2.30;;
73729;SDS011;62036;48.128;16.458;2023-04-30T13:05:33;3.63;;;2.58;;
73729;SDS011;62036;48.128;16.458;2023-04-30T13:08:03;4.05;;;2.65;;
73729;SDS011;62036;48.128;16.458;2023-04-30T13:10:32;3.05;;;2.15;;
73729;SDS011;62036;48.128;16.458;2023-04-30T13:12:58;4.28;;;2.08;;
73729;SDS011;62036;48.128;16.458;2023-04-30T13:15:24;3.30;;;2.20;;
73729;SDS011;62036;48.128;16.458;2023-04-30T13:17:51;3.65;;;2.35;;
73729;SDS011;62036;48.128;16.458;2023-04-30T13:20:17;3.45;;;2.50;;
73729;SDS011;62036;48.128;16.458;2023-04-30T13:22:44;3.95;;;2.50;;
73729;SDS011;62036;48.128;16.458;2023-04-30T13:25:10;3.70;;;2.90;;
73729;SDS011;62036;48.128;16.458;2023-04-30T13:27:36;3.67;;;2.15;;
73729;SDS011;62036;48.128;16.458;2023-04-30T13:30:02;3.47;;;2.22;;
73729;SDS011;62036;48.128;16.458;2023-04-30T13:32:29;3.13;;;2.10;;
73729;SDS011;62036;48.128;16.458;2023-04-30T13:34:55;2.88;;;2.08;;
73729;SDS011;62036;48.128;16.458;2023-04-30T13:37:22;4.82;;;2.20;;
73729;SDS011;62036;48.128;16.458;2023-04-30T13:39:48;3.03;;;2.17;;
73729;SDS011;62036;48.128;16.458;2023-04-30T13:42:14;2.33;;;1.92;;
73729;SDS011;62036;48.128;16.458;2023-04-30T13:44:40;3.00;;;2.17;;
73729;SDS011;62036;48.128;16.458;2023-04-30T13:47:09;3.22;;;2.28;;
73729;SDS011;62036;48.128;16.458;2023-04-30T13:49:35;4.10;;;2.83;;
73729;SDS011;62036;48.128;16.458;2023-04-30T13:52:04;6.93;;;2.65;;
73729;SDS011;62036;48.128;16.458;2023-04-30T13:54:30;2.85;;;2.17;;
73729;SDS011;62036;48.128;16.458;2023-04-30T13:56:57;2.53;;;1.88;;
73729;SDS011;62036;48.128;16.458;2023-04-30T13:59:27;2.72;;;2.40;;
73729;SDS011;62036;48.128;16.458;2023-04-30T14:01:53;3.40;;;2.38;;
73729;SDS011;62036;48.128;16.458;2023-04-30T14:04:19;3.38;;;2.40;;
73729;SDS011;62036;48.128;16.458;2023-04-30T14:06:45;3.03;;;1.83;;
73729;SDS011;62036;48.128;16.458;2023-04-30T14:09:12;4.22;;;2.42;;
73729;SDS011;62036;48.128;16.458;2023-04-30T14:11:38;2.80;;;2.10;;
73729;SDS011;62036;48.128;16.458;2023-04-30T14:14:04;4.57;;;2.17;;
73729;SDS011;62036;48.128;16.458;2023-04-30T14:16:31;2.25;;;1.83;;
73729;SDS011;62036;48.128;16.458;2023-04-30T14:18:57;2.15;;;1.88;;
73729;SDS011;62036;48.128;16.458;2023-04-30T14:21:23;2.47;;;1.73;;
73729;SDS011;62036;48.128;16.458;2023-04-30T14:23:49;2.53;;;1.85;;
73729;SDS011;62036;48.128;16.458;2023-04-30T14:26:16;2.72;;;1.95;;
73729;SDS011;62036;48.128;16.458;2023-04-30T14:28:42;3.78;;;2.40;;
73729;SDS011;62036;48.128;16.458;2023-04-30T14:31:08;3.00;;;2.13;;
73729;SDS011;62036;48.128;16.458;2023-04-30T14:33:34;2.20;;;1.92;;
73729;SDS011;62036;48.128;16.458;2023-04-30T14:36:00;2.75;;;2.05;;
73729;SDS011;62036;48.128;16.458;2023-04-30T14:38:26;2.55;;;1.85;;
73729;SDS011;62036;48.128;16.458;2023-04-30T14:40:52;2.53;;;1.83;;
73729;SDS011;62036;48.128;16.458;2023-04-30T14:43:18;3.28;;;2.45;;
73729;SDS011;62036;48.128;16.458;2023-04-30T14:45:45;2.30;;;1.90;;
73729;SDS011;62036;48.128;16.458;2023-04-30T14:48:11;3.17;;;2.30;;
73729;SDS011;62036;48.128;16.458;2023-04-30T14:50:37;2.50;;;2.25;;
73729;SDS011;62036;48.128;16.458;2023-04-30T14:53:05;3.55;;;2.20;;
73729;SDS011;62036;48.128;16.458;2023-04-30T14:55:33;3.38;;;2.50;;